»·PEaware :: WAT169 KLAS-KPHX

WAT169 :: KLAS-KPHX

FLIGHT INFORMATION

Flight Status: Arrived
Operator: Unknown
More flights by this operator :: More flights under this callsign
Pilot: Marty P. (27464)
Aircraft: BOEING 737-800
(B738)
More flights by this aircraft type
Origin: KLAS McCarran Intl
United States
Destination: KPHX Phoenix Sky Harbor Intl
United States
More flights between these airports :: More routes between these airports
Route: PRFUM4 PRFUM WOTRO BRUSR1
File this flight plan on PilotEdge
Remarks:
Altitude:
(Current/Filed)
29,000ft
Speed:
(Current/Filed)
470kts
Departed: 18-May-20 05:45 PM
Arrived: 18-May-20 06:33 PM
Distance/Time
Traveled:
222nm/0:48
Distance/Time
To Go:
Arrived

Flight Plot

Page will automatically refresh every two minutes.


Map Options




Map Legend


Flown Route
Filed Route
Departure Airport
Arrival Airport
Navaid (VOR, NDB)
Fix

Horizontal Profiles

Position Reports

Time Latitude Longitude Heading Altitude Ground
Speed
18-May-20 17:12 36.080313 -115.147275 61 2191ft 0kts
18-May-20 17:13 36.080313 -115.147275 61 2191ft 0kts
18-May-20 17:18 36.079550 -115.146692 29 2191ft 0kts
18-May-20 17:19 36.079550 -115.146692 29 2191ft 0kts
18-May-20 17:20 36.079550 -115.146692 29 2191ft 0kts
18-May-20 17:21 36.079550 -115.146692 29 2191ft 0kts
18-May-20 17:22 36.079550 -115.146692 29 2191ft 0kts
18-May-20 17:23 36.079550 -115.146692 29 2191ft 0kts
18-May-20 17:24 36.079550 -115.146692 29 2191ft 0kts
18-May-20 17:25 36.079550 -115.146692 29 2191ft 0kts
18-May-20 17:27 36.079550 -115.146692 29 2191ft 0kts
18-May-20 17:28 36.079550 -115.146692 29 2191ft 0kts
18-May-20 17:29 36.079550 -115.146692 29 2191ft 0kts
18-May-20 17:30 36.079550 -115.146692 29 2191ft 0kts
18-May-20 17:31 36.079550 -115.146692 29 2191ft 0kts
18-May-20 17:32 36.079550 -115.146692 29 2191ft 0kts
18-May-20 17:33 36.079550 -115.146692 29 2191ft 0kts
18-May-20 17:34 36.079550 -115.146692 29 2191ft 0kts
18-May-20 17:35 36.079530 -115.146706 29 2191ft 2kts
18-May-20 17:36 36.079279 -115.147308 107 2191ft 2kts
18-May-20 17:37 36.079495 -115.147625 155 2191ft 0kts
18-May-20 17:38 36.079495 -115.147625 155 2191ft 0kts
18-May-20 17:39 36.078452 -115.146212 94 2191ft 10kts
18-May-20 17:40 36.078266 -115.141973 89 2191ft 20kts
18-May-20 17:41 36.078273 -115.135199 89 2191ft 19kts
18-May-20 17:42 36.078276 -115.128711 90 2191ft 19kts
18-May-20 17:42 36.078232 -115.122802 107 2191ft 18kts
18-May-20 17:44 36.077459 -115.121495 138 2191ft 0kts
18-May-20 17:45 36.076421 -115.123741 268 2191ft 59kts
18-May-20 17:45 36.077097 -115.164714 267 3244ft 178kts
18-May-20 17:46 36.069568 -115.236438 240 4732ft 253kts
18-May-20 17:47 36.010518 -115.283761 197 7163ft 284kts
18-May-20 17:48 35.936160 -115.288027 170 11362ft 262kts
18-May-20 17:49 35.872428 -115.246133 139 14298ft 287kts
18-May-20 17:50 35.837195 -115.142410 113 15251ft 379kts
18-May-20 17:51 35.827021 -115.003024 91 16901ft 427kts
18-May-20 17:52 35.837664 -114.858405 91 19421ft 431kts
18-May-20 17:53 35.848702 -114.709528 91 21491ft 442kts
18-May-20 17:54 35.832363 -114.565702 125 23346ft 419kts
18-May-20 17:55 35.772162 -114.442092 130 25062ft 425kts
18-May-20 17:56 35.708372 -114.320137 131 26534ft 437kts
18-May-20 17:57 35.641457 -114.194132 131 27916ft 447kts
18-May-20 17:58 35.573394 -114.066589 131 28912ft 456kts
18-May-20 17:59 35.502780 -113.934866 131 28970ft 471kts
18-May-20 18:00 35.430551 -113.801453 130 28959ft 482kts
18-May-20 18:01 35.356640 -113.664837 130 28946ft 484kts
18-May-20 18:02 35.285274 -113.532901 130 28935ft 438kts
18-May-20 18:03 35.217239 -113.408286 130 28944ft 449kts
18-May-20 18:04 35.150021 -113.285397 131 28943ft 445kts
18-May-20 18:05 35.081886 -113.161284 130 28944ft 446kts
18-May-20 18:06 35.013177 -113.036985 130 28925ft 446kts
18-May-20 18:07 34.944299 -112.912621 130 28916ft 441kts
18-May-20 18:08 34.879362 -112.795672 130 28944ft 443kts
18-May-20 18:09 34.810152 -112.671389 129 28937ft 447kts
18-May-20 18:10 34.739441 -112.545620 132 28908ft 463kts
18-May-20 18:11 34.649879 -112.435496 143 28894ft 462kts
18-May-20 18:12 34.557346 -112.339927 146 26371ft 439kts
18-May-20 18:13 34.461941 -112.250826 158 22541ft 419kts
18-May-20 18:14 34.357358 -112.209868 169 20068ft 379kts
18-May-20 18:15 34.258806 -112.181930 171 17971ft 350kts
18-May-20 18:16 34.170092 -112.158671 171 16331ft 320kts
18-May-20 18:17 34.085850 -112.136577 167 15136ft 292kts
18-May-20 18:18 34.010145 -112.106159 164 13649ft 286kts
18-May-20 18:19 33.935601 -112.076454 165 12104ft 280kts
18-May-20 18:20 33.863456 -112.048753 164 10927ft 267kts
18-May-20 18:21 33.795006 -112.019024 164 9845ft 257kts
18-May-20 18:22 33.726786 -111.991146 165 9023ft 264kts
18-May-20 18:23 33.658203 -111.963430 165 8028ft 251kts
18-May-20 18:24 33.594684 -111.937833 165 7714ft 253kts
18-May-20 18:25 33.532833 -111.903854 130 6894ft 239kts
18-May-20 18:26 33.504843 -111.834282 119 5772ft 224kts
18-May-20 18:27 33.456475 -111.806387 181 4184ft 188kts
18-May-20 18:28 33.437737 -111.847918 277 2998ft 171kts
18-May-20 18:29 33.440611 -111.900289 264 2672ft 144kts
18-May-20 18:30 33.440698 -111.950889 265 1850ft 149kts
18-May-20 18:31 33.440807 -112.000903 265 1147ft 137kts
18-May-20 18:32 33.440167 -112.010876 186 1144ft 0kts
18-May-20 18:33 33.439992 -112.010798 143 1144ft 0kts
18-May-20 18:34 33.439755 -112.009806 90 1144ft 4kts
18-May-20 18:35 33.439752 -112.006678 89 1144ft 11kts
18-May-20 18:36 33.438225 -112.004706 179 1144ft 13kts
18-May-20 18:37 33.434799 -112.004687 179 1144ft 13kts
18-May-20 18:38 33.432859 -112.006442 268 1144ft 12kts
18-May-20 18:39 33.433579 -112.008269 318 1144ft 0kts
18-May-20 18:40 33.433579 -112.008269 318 1144ft 0kts
18-May-20 18:41 33.433579 -112.008269 318 1144ft 0kts
18-May-20 18:42 33.433579 -112.008269 318 1144ft 0kts
18-May-20 18:43 33.433579 -112.008269 318 1144ft 0kts
18-May-20 18:44 33.433579 -112.008269 318 1144ft 0kts
18-May-20 18:45 33.433579 -112.008269 318 1144ft 0kts
18-May-20 18:46 33.433579 -112.008269 318 1144ft 0kts

Navigation Log

Ident Type
Flight plan parsing failed, navigation log unavailable